Fallentimber, Pennsylvania
Current Conditions -  °F | °C
As of 1:54 AM on Friday 28 Nov 2014 (Local Time) from KFIG Reporting Station
Broken Clouds Broken Clouds  
Wind Chill: 19°   Ceiling: 3500
Heat Index: 27°   Visibility: 10mi
Dew Point: 21°   Wind: 7mph
Humidity: 78%   Direction: 260°W
Pressure: 30.11"   Gusts: NA
Location:  40.69°N, 78.5°W
Report Text: KFIG 280654Z AUTO 26006KT 10SM BKN035 M03/M06 A3011 RMK AO2 SLP214 T10281061
Loading
Personal Weather Stations






























Interactive Weather Map New forecast layout! Learn more

10-Day Weather Forecast

Advertisements
Track Severe Weather on mobile